sensor_id;sensor_type;location;lat;lon;timestamp;temperature;humidity
22081;DHT22;11207;59.512;18.050;2023-01-01T00:01:17;2.60;99.90
22081;DHT22;11207;59.512;18.050;2023-01-01T00:03:42;2.60;99.90
22081;DHT22;11207;59.512;18.050;2023-01-01T00:06:10;2.60;99.90
22081;DHT22;11207;59.512;18.050;2023-01-01T00:08:36;2.50;99.90
22081;DHT22;11207;59.512;18.050;2023-01-01T00:11:02;2.50;99.90
22081;DHT22;11207;59.512;18.050;2023-01-01T00:13:28;2.50;99.90
22081;DHT22;11207;59.512;18.050;2023-01-01T00:15:54;2.50;99.90
22081;DHT22;11207;59.512;18.050;2023-01-01T00:18:19;2.40;99.90
22081;DHT22;11207;59.512;18.050;2023-01-01T00:20:45;2.30;99.90
22081;DHT22;11207;59.512;18.050;2023-01-01T00:23:10;2.20;99.90
22081;DHT22;11207;59.512;18.050;2023-01-01T00:25:39;2.10;99.90
22081;DHT22;11207;59.512;18.050;2023-01-01T00:28:05;2.20;99.90
22081;DHT22;11207;59.512;18.050;2023-01-01T00:30:30;2.10;99.90
22081;DHT22;11207;59.512;18.050;2023-01-01T00:32:56;2.10;99.90
22081;DHT22;11207;59.512;18.050;2023-01-01T00:35:23;2.00;99.90
22081;DHT22;11207;59.512;18.050;2023-01-01T00:37:49;1.90;99.90
22081;DHT22;11207;59.512;18.050;2023-01-01T00:40:14;2.00;99.90
22081;DHT22;11207;59.512;18.050;2023-01-01T00:42:40;1.80;99.90
22081;DHT22;11207;59.512;18.050;2023-01-01T00:45:06;1.90;99.90
22081;DHT22;11207;59.512;18.050;2023-01-01T00:47:32;1.70;99.90
22081;DHT22;11207;59.512;18.050;2023-01-01T00:50:01;1.70;99.90
22081;DHT22;11207;59.512;18.050;2023-01-01T00:52:27;1.70;99.90
22081;DHT22;11207;59.512;18.050;2023-01-01T00:54:53;1.60;99.90
22081;DHT22;11207;59.512;18.050;2023-01-01T00:57:18;1.60;99.90
22081;DHT22;11207;59.512;18.050;2023-01-01T00:59:44;1.60;99.90
22081;DHT22;11207;59.512;18.050;2023-01-01T01:02:09;1.60;99.90
22081;DHT22;11207;59.512;18.050;2023-01-01T01:04:35;1.60;99.90
22081;DHT22;11207;59.512;18.050;2023-01-01T01:07:01;1.60;99.90
22081;DHT22;11207;59.512;18.050;2023-01-01T01:09:26;1.60;99.90
22081;DHT22;11207;59.512;18.050;2023-01-01T01:11:52;1.50;99.90
22081;DHT22;11207;59.512;18.050;2023-01-01T01:14:19;1.60;99.90
22081;DHT22;11207;59.512;18.050;2023-01-01T01:16:45;1.50;99.90
22081;DHT22;11207;59.512;18.050;2023-01-01T01:19:11;1.50;99.90
22081;DHT22;11207;59.512;18.050;2023-01-01T01:21:40;1.50;99.90
22081;DHT22;11207;59.512;18.050;2023-01-01T01:24:06;1.50;99.90
22081;DHT22;11207;59.512;18.050;2023-01-01T01:26:33;1.50;99.90
22081;DHT22;11207;59.512;18.050;2023-01-01T01:29:01;1.40;99.90
22081;DHT22;11207;59.512;18.050;2023-01-01T01:31:29;1.50;99.90
22081;DHT22;11207;59.512;18.050;2023-01-01T01:33:55;1.40;99.90
22081;DHT22;11207;59.512;18.050;2023-01-01T01:36:21;1.40;99.90
22081;DHT22;11207;59.512;18.050;2023-01-01T01:38:47;1.40;99.90
22081;DHT22;11207;59.512;18.050;2023-01-01T01:41:15;1.40;99.90
22081;DHT22;11207;59.512;18.050;2023-01-01T01:46:13;1.50;99.90
22081;DHT22;11207;59.512;18.050;2023-01-01T01:48:43;1.40;99.90
22081;DHT22;11207;59.512;18.050;2023-01-01T01:51:12;1.40;99.90
22081;DHT22;11207;59.512;18.050;2023-01-01T01:53:49;1.40;99.90
22081;DHT22;11207;59.512;18.050;2023-01-01T01:56:20;1.40;99.90
22081;DHT22;11207;59.512;18.050;2023-01-01T01:58:48;1.40;99.90
22081;DHT22;11207;59.512;18.050;2023-01-01T02:01:14;1.30;99.90
22081;DHT22;11207;59.512;18.050;2023-01-01T02:04:00;1.30;99.90
22081;DHT22;11207;59.512;18.050;2023-01-01T02:06:27;1.30;99.90
22081;DHT22;11207;59.512;18.050;2023-01-01T02:08:56;1.30;99.90
22081;DHT22;11207;59.512;18.050;2023-01-01T02:11:22;1.30;99.90
22081;DHT22;11207;59.512;18.050;2023-01-01T02:13:51;1.30;99.90
22081;DHT22;11207;59.512;18.050;2023-01-01T02:16:25;1.30;99.90
22081;DHT22;11207;59.512;18.050;2023-01-01T02:19:06;1.30;99.90
22081;DHT22;11207;59.512;18.050;2023-01-01T02:30:19;1.20;99.90
22081;DHT22;11207;59.512;18.050;2023-01-01T02:33:04;1.40;99.90
22081;DHT22;11207;59.512;18.050;2023-01-01T02:35:39;1.30;99.90
22081;DHT22;11207;59.512;18.050;2023-01-01T02:40:43;1.20;99.90
22081;DHT22;11207;59.512;18.050;2023-01-01T02:43:10;1.20;99.90
22081;DHT22;11207;59.512;18.050;2023-01-01T02:45:35;1.10;99.90
22081;DHT22;11207;59.512;18.050;2023-01-01T02:48:06;1.20;99.90
22081;DHT22;11207;59.512;18.050;2023-01-01T02:50:51;1.20;99.90
22081;DHT22;11207;59.512;18.050;2023-01-01T02:53:18;1.20;99.90
22081;DHT22;11207;59.512;18.050;2023-01-01T02:56:01;1.10;99.90
22081;DHT22;11207;59.512;18.050;2023-01-01T02:59:25;1.00;99.90
22081;DHT22;11207;59.512;18.050;2023-01-01T03:15:59;1.10;99.90
22081;DHT22;11207;59.512;18.050;2023-01-01T03:21:01;1.00;99.90
22081;DHT22;11207;59.512;18.050;2023-01-01T03:23:36;1.00;99.90
22081;DHT22;11207;59.512;18.050;2023-01-01T03:26:07;0.90;99.90
22081;DHT22;11207;59.512;18.050;2023-01-01T03:28:47;0.90;99.90
22081;DHT22;11207;59.512;18.050;2023-01-01T03:31:18;0.90;99.90
22081;DHT22;11207;59.512;18.050;2023-01-01T03:33:48;0.90;99.90
22081;DHT22;11207;59.512;18.050;2023-01-01T03:36:19;0.90;99.90
22081;DHT22;11207;59.512;18.050;2023-01-01T03:38:53;0.80;99.90
22081;DHT22;11207;59.512;18.050;2023-01-01T03:41:36;0.80;99.90
22081;DHT22;11207;59.512;18.050;2023-01-01T03:46:50;0.80;99.90
22081;DHT22;11207;59.512;18.050;2023-01-01T03:49:16;0.80;99.90
22081;DHT22;11207;59.512;18.050;2023-01-01T03:57:43;0.80;99.90
22081;DHT22;11207;59.512;18.050;2023-01-01T04:00:15;0.70;99.90
22081;DHT22;11207;59.512;18.050;2023-01-01T04:02:56;0.70;99.90
22081;DHT22;11207;59.512;18.050;2023-01-01T04:05:24;0.60;99.90
22081;DHT22;11207;59.512;18.050;2023-01-01T04:07:51;0.60;99.90
22081;DHT22;11207;59.512;18.050;2023-01-01T04:10:17;0.60;99.90
22081;DHT22;11207;59.512;18.050;2023-01-01T04:12:51;0.60;99.90
22081;DHT22;11207;59.512;18.050;2023-01-01T04:15:23;0.60;99.90
22081;DHT22;11207;59.512;18.050;2023-01-01T04:17:49;0.60;99.90
22081;DHT22;11207;59.512;18.050;2023-01-01T04:20:16;0.60;99.90
22081;DHT22;11207;59.512;18.050;2023-01-01T04:22:41;0.60;99.90
22081;DHT22;11207;59.512;18.050;2023-01-01T04:25:09;0.60;99.90
22081;DHT22;11207;59.512;18.050;2023-01-01T04:27:35;0.60;99.90
22081;DHT22;11207;59.512;18.050;2023-01-01T04:30:05;0.50;99.90
22081;DHT22;11207;59.512;18.050;2023-01-01T04:32:31;0.60;99.90
22081;DHT22;11207;59.512;18.050;2023-01-01T04:34:57;0.60;99.90
22081;DHT22;11207;59.512;18.050;2023-01-01T04:37:23;0.60;99.90
22081;DHT22;11207;59.512;18.050;2023-01-01T04:39:48;0.60;99.90
22081;DHT22;11207;59.512;18.050;2023-01-01T04:42:14;0.60;99.90
22081;DHT22;11207;59.512;18.050;2023-01-01T04:44:40;0.60;99.90
22081;DHT22;11207;59.512;18.050;2023-01-01T04:47:06;0.50;99.90
22081;DHT22;11207;59.512;18.050;2023-01-01T04:49:31;0.50;99.90
22081;DHT22;11207;59.512;18.050;2023-01-01T04:51:57;0.50;99.90
22081;DHT22;11207;59.512;18.050;2023-01-01T04:54:22;0.40;99.90
22081;DHT22;11207;59.512;18.050;2023-01-01T04:56:51;0.50;99.90
22081;DHT22;11207;59.512;18.050;2023-01-01T04:59:17;0.50;99.90
22081;DHT22;11207;59.512;18.050;2023-01-01T05:01:42;0.50;99.90
22081;DHT22;11207;59.512;18.050;2023-01-01T05:04:11;0.50;99.90
22081;DHT22;11207;59.512;18.050;2023-01-01T05:06:37;0.50;99.90
22081;DHT22;11207;59.512;18.050;2023-01-01T05:09:03;0.50;99.90
22081;DHT22;11207;59.512;18.050;2023-01-01T05:11:29;0.50;99.90
22081;DHT22;11207;59.512;18.050;2023-01-01T05:13:57;0.50;99.90
22081;DHT22;11207;59.512;18.050;2023-01-01T05:16:26;0.60;99.90
22081;DHT22;11207;59.512;18.050;2023-01-01T05:18:52;0.50;99.90
22081;DHT22;11207;59.512;18.050;2023-01-01T05:21:23;0.50;99.90
22081;DHT22;11207;59.512;18.050;2023-01-01T05:23:53;0.60;99.90
22081;DHT22;11207;59.512;18.050;2023-01-01T05:26:20;0.50;99.90
22081;DHT22;11207;59.512;18.050;2023-01-01T05:28:48;0.50;99.90
22081;DHT22;11207;59.512;18.050;2023-01-01T05:31:15;0.60;99.90
22081;DHT22;11207;59.512;18.050;2023-01-01T05:33:41;0.50;99.90
22081;DHT22;11207;59.512;18.050;2023-01-01T05:36:09;0.50;99.90
22081;DHT22;11207;59.512;18.050;2023-01-01T05:38:39;0.50;99.90
22081;DHT22;11207;59.512;18.050;2023-01-01T05:41:10;0.50;99.90
22081;DHT22;11207;59.512;18.050;2023-01-01T05:43:36;0.60;99.90
22081;DHT22;11207;59.512;18.050;2023-01-01T05:46:07;0.50;99.90
22081;DHT22;11207;59.512;18.050;2023-01-01T05:48:34;0.50;99.90
22081;DHT22;11207;59.512;18.050;2023-01-01T05:51:03;0.60;99.90
22081;DHT22;11207;59.512;18.050;2023-01-01T05:53:30;0.50;99.90
22081;DHT22;11207;59.512;18.050;2023-01-01T05:55:56;0.50;99.90
22081;DHT22;11207;59.512;18.050;2023-01-01T05:58:21;0.50;99.90
22081;DHT22;11207;59.512;18.050;2023-01-01T06:00:47;0.50;99.90
22081;DHT22;11207;59.512;18.050;2023-01-01T06:03:13;0.50;99.90
22081;DHT22;11207;59.512;18.050;2023-01-01T06:05:38;0.60;99.90
22081;DHT22;11207;59.512;18.050;2023-01-01T06:08:04;0.60;99.90
22081;DHT22;11207;59.512;18.050;2023-01-01T06:10:30;0.50;99.90
22081;DHT22;11207;59.512;18.050;2023-01-01T06:12:55;0.60;99.90
22081;DHT22;11207;59.512;18.050;2023-01-01T06:15:26;0.50;99.90
22081;DHT22;11207;59.512;18.050;2023-01-01T06:17:52;0.50;99.90
22081;DHT22;11207;59.512;18.050;2023-01-01T06:20:18;0.50;99.90
22081;DHT22;11207;59.512;18.050;2023-01-01T06:22:44;0.60;99.90
22081;DHT22;11207;59.512;18.050;2023-01-01T06:25:10;0.60;99.90
22081;DHT22;11207;59.512;18.050;2023-01-01T06:27:37;0.60;99.90
22081;DHT22;11207;59.512;18.050;2023-01-01T06:30:06;0.50;99.90
22081;DHT22;11207;59.512;18.050;2023-01-01T06:32:32;0.50;99.90
22081;DHT22;11207;59.512;18.050;2023-01-01T06:34:58;0.50;99.90
22081;DHT22;11207;59.512;18.050;2023-01-01T06:37:24;0.50;99.90
22081;DHT22;11207;59.512;18.050;2023-01-01T06:39:51;0.60;99.90
22081;DHT22;11207;59.512;18.050;2023-01-01T06:42:17;0.50;99.90
22081;DHT22;11207;59.512;18.050;2023-01-01T06:44:42;0.50;99.90
22081;DHT22;11207;59.512;18.050;2023-01-01T06:47:08;0.50;99.90
22081;DHT22;11207;59.512;18.050;2023-01-01T06:49:34;0.50;99.90
22081;DHT22;11207;59.512;18.050;2023-01-01T06:51:59;0.50;99.90
22081;DHT22;11207;59.512;18.050;2023-01-01T06:54:25;0.40;99.90
22081;DHT22;11207;59.512;18.050;2023-01-01T06:56:50;0.40;99.90
22081;DHT22;11207;59.512;18.050;2023-01-01T06:59:16;0.30;99.90
22081;DHT22;11207;59.512;18.050;2023-01-01T07:01:42;0.30;99.90
22081;DHT22;11207;59.512;18.050;2023-01-01T07:04:13;0.30;99.90
22081;DHT22;11207;59.512;18.050;2023-01-01T07:06:39;0.30;99.90
22081;DHT22;11207;59.512;18.050;2023-01-01T07:09:06;0.30;99.90
22081;DHT22;11207;59.512;18.050;2023-01-01T07:11:34;0.30;99.90
22081;DHT22;11207;59.512;18.050;2023-01-01T07:13:59;0.20;99.90
22081;DHT22;11207;59.512;18.050;2023-01-01T07:16:25;0.10;99.90
22081;DHT22;11207;59.512;18.050;2023-01-01T07:18:51;0.10;99.90
22081;DHT22;11207;59.512;18.050;2023-01-01T07:21:30;0.10;99.90
22081;DHT22;11207;59.512;18.050;2023-01-01T07:24:01;0.00;99.90
22081;DHT22;11207;59.512;18.050;2023-01-01T07:26:28;0.00;99.90
22081;DHT22;11207;59.512;18.050;2023-01-01T07:28:54;0.00;99.90
22081;DHT22;11207;59.512;18.050;2023-01-01T07:31:20;0.00;99.90
22081;DHT22;11207;59.512;18.050;2023-01-01T07:33:46;-0.10;99.90
22081;DHT22;11207;59.512;18.050;2023-01-01T07:36:11;-0.10;99.90
22081;DHT22;11207;59.512;18.050;2023-01-01T07:38:38;-0.10;99.90
22081;DHT22;11207;59.512;18.050;2023-01-01T07:41:07;-0.10;99.90
22081;DHT22;11207;59.512;18.050;2023-01-01T07:43:33;-0.20;99.90
22081;DHT22;11207;59.512;18.050;2023-01-01T07:45:59;-0.20;99.90
22081;DHT22;11207;59.512;18.050;2023-01-01T07:48:25;-0.20;99.90
22081;DHT22;11207;59.512;18.050;2023-01-01T07:50:50;-0.20;99.90
22081;DHT22;11207;59.512;18.050;2023-01-01T07:53:16;-0.30;99.90
22081;DHT22;11207;59.512;18.050;2023-01-01T07:55:42;-0.30;99.90
22081;DHT22;11207;59.512;18.050;2023-01-01T07:58:10;-0.30;99.90
22081;DHT22;11207;59.512;18.050;2023-01-01T08:00:37;-0.30;99.90
22081;DHT22;11207;59.512;18.050;2023-01-01T08:03:03;-0.30;99.90
22081;DHT22;11207;59.512;18.050;2023-01-01T08:05:30;-0.40;99.90
22081;DHT22;11207;59.512;18.050;2023-01-01T08:07:55;-0.40;99.90
22081;DHT22;11207;59.512;18.050;2023-01-01T08:10:22;-0.40;99.90
22081;DHT22;11207;59.512;18.050;2023-01-01T08:12:51;-0.50;99.90
22081;DHT22;11207;59.512;18.050;2023-01-01T08:15:16;-0.40;99.90
22081;DHT22;11207;59.512;18.050;2023-01-01T08:17:42;-0.40;99.90
22081;DHT22;11207;59.512;18.050;2023-01-01T08:20:11;-0.50;99.90
22081;DHT22;11207;59.512;18.050;2023-01-01T08:22:37;-0.50;99.90
22081;DHT22;11207;59.512;18.050;2023-01-01T08:25:03;-0.60;99.90
22081;DHT22;11207;59.512;18.050;2023-01-01T08:27:28;-0.50;99.90
22081;DHT22;11207;59.512;18.050;2023-01-01T08:29:54;-0.50;99.90
22081;DHT22;11207;59.512;18.050;2023-01-01T08:32:19;-0.60;99.90
22081;DHT22;11207;59.512;18.050;2023-01-01T08:34:45;-0.60;99.90
22081;DHT22;11207;59.512;18.050;2023-01-01T08:37:12;-0.60;99.90
22081;DHT22;11207;59.512;18.050;2023-01-01T08:39:38;-0.70;99.90
22081;DHT22;11207;59.512;18.050;2023-01-01T08:42:04;-0.70;99.90
22081;DHT22;11207;59.512;18.050;2023-01-01T08:44:29;-0.70;99.90
22081;DHT22;11207;59.512;18.050;2023-01-01T08:46:55;-0.70;99.90
22081;DHT22;11207;59.512;18.050;2023-01-01T08:49:21;-0.80;99.90
22081;DHT22;11207;59.512;18.050;2023-01-01T08:51:46;-0.80;99.90
22081;DHT22;11207;59.512;18.050;2023-01-01T08:54:12;-0.80;99.90
22081;DHT22;11207;59.512;18.050;2023-01-01T08:56:37;-0.80;99.90
22081;DHT22;11207;59.512;18.050;2023-01-01T08:59:03;-0.90;99.90
22081;DHT22;11207;59.512;18.050;2023-01-01T09:01:29;-0.80;99.90
22081;DHT22;11207;59.512;18.050;2023-01-01T09:03:54;-0.80;99.90
22081;DHT22;11207;59.512;18.050;2023-01-01T09:06:20;-0.80;99.90
22081;DHT22;11207;59.512;18.050;2023-01-01T09:08:46;-0.80;99.90
22081;DHT22;11207;59.512;18.050;2023-01-01T09:11:23;-0.80;99.90
22081;DHT22;11207;59.512;18.050;2023-01-01T09:13:50;-0.80;99.90
22081;DHT22;11207;59.512;18.050;2023-01-01T09:16:15;-0.80;99.90
22081;DHT22;11207;59.512;18.050;2023-01-01T09:18:41;-0.80;99.90
22081;DHT22;11207;59.512;18.050;2023-01-01T09:21:07;-0.80;99.90
22081;DHT22;11207;59.512;18.050;2023-01-01T09:23:32;-0.70;99.90
22081;DHT22;11207;59.512;18.050;2023-01-01T09:26:06;-0.70;99.90
22081;DHT22;11207;59.512;18.050;2023-01-01T09:28:32;-0.70;99.90
22081;DHT22;11207;59.512;18.050;2023-01-01T09:30:57;-0.70;99.90
22081;DHT22;11207;59.512;18.050;2023-01-01T09:33:23;-0.70;99.90
22081;DHT22;11207;59.512;18.050;2023-01-01T09:35:49;-0.70;99.90
22081;DHT22;11207;59.512;18.050;2023-01-01T09:38:14;-0.60;99.90
22081;DHT22;11207;59.512;18.050;2023-01-01T09:40:58;-0.60;99.90
22081;DHT22;11207;59.512;18.050;2023-01-01T09:46:09;-0.50;99.90
22081;DHT22;11207;59.512;18.050;2023-01-01T09:48:39;-0.50;99.90
22081;DHT22;11207;59.512;18.050;2023-01-01T09:51:12;-0.50;99.90
22081;DHT22;11207;59.512;18.050;2023-01-01T09:56:19;-0.50;99.90
22081;DHT22;11207;59.512;18.050;2023-01-01T09:58:47;-0.50;99.90
22081;DHT22;11207;59.512;18.050;2023-01-01T10:01:36;-0.40;99.90
22081;DHT22;11207;59.512;18.050;2023-01-01T10:04:27;-0.40;99.90
22081;DHT22;11207;59.512;18.050;2023-01-01T10:13:42;-0.40;99.90
22081;DHT22;11207;59.512;18.050;2023-01-01T10:15:58;-0.40;99.90
22081;DHT22;11207;59.512;18.050;2023-01-01T10:18:29;-0.30;99.90
22081;DHT22;11207;59.512;18.050;2023-01-01T10:23:53;-0.30;99.90
22081;DHT22;11207;59.512;18.050;2023-01-01T10:26:22;-0.20;99.90
22081;DHT22;11207;59.512;18.050;2023-01-01T10:31:41;-0.20;99.90
22081;DHT22;11207;59.512;18.050;2023-01-01T10:34:18;-0.20;99.90
22081;DHT22;11207;59.512;18.050;2023-01-01T10:36:46;-0.20;99.90
22081;DHT22;11207;59.512;18.050;2023-01-01T10:39:14;-0.20;99.90
22081;DHT22;11207;59.512;18.050;2023-01-01T10:41:41;-0.20;99.90
22081;DHT22;11207;59.512;18.050;2023-01-01T10:44:08;-0.20;99.90
22081;DHT22;11207;59.512;18.050;2023-01-01T10:46:36;-0.20;99.90
22081;DHT22;11207;59.512;18.050;2023-01-01T10:49:10;-0.20;99.90
22081;DHT22;11207;59.512;18.050;2023-01-01T10:51:47;-0.20;99.90
22081;DHT22;11207;59.512;18.050;2023-01-01T10:54:34;-0.10;99.90
22081;DHT22;11207;59.512;18.050;2023-01-01T10:57:30;-0.10;99.90
22081;DHT22;11207;59.512;18.050;2023-01-01T11:00:22;-0.10;99.90
22081;DHT22;11207;59.512;18.050;2023-01-01T11:05:35;-0.10;99.90
22081;DHT22;11207;59.512;18.050;2023-01-01T11:08:14;-0.10;99.90
22081;DHT22;11207;59.512;18.050;2023-01-01T11:10:40;-0.20;99.90
22081;DHT22;11207;59.512;18.050;2023-01-01T11:13:19;0.00;99.90
22081;DHT22;11207;59.512;18.050;2023-01-01T11:15:46;0.00;99.90
22081;DHT22;11207;59.512;18.050;2023-01-01T11:18:25;0.10;99.90
22081;DHT22;11207;59.512;18.050;2023-01-01T11:20:56;0.10;99.90
22081;DHT22;11207;59.512;18.050;2023-01-01T11:23:37;0.10;99.90
22081;DHT22;11207;59.512;18.050;2023-01-01T11:28:38;0.20;99.90
22081;DHT22;11207;59.512;18.050;2023-01-01T11:33:50;0.20;99.90
22081;DHT22;11207;59.512;18.050;2023-01-01T11:36:28;0.10;99.90
22081;DHT22;11207;59.512;18.050;2023-01-01T11:41:46;0.10;99.90
22081;DHT22;11207;59.512;18.050;2023-01-01T11:44:25;0.00;99.90
22081;DHT22;11207;59.512;18.050;2023-01-01T11:46:53;0.10;99.90
22081;DHT22;11207;59.512;18.050;2023-01-01T11:49:24;0.00;99.90
22081;DHT22;11207;59.512;18.050;2023-01-01T11:51:51;0.10;99.90
22081;DHT22;11207;59.512;18.050;2023-01-01T11:54:30;0.10;99.90
22081;DHT22;11207;59.512;18.050;2023-01-01T11:57:16;0.10;99.90
22081;DHT22;11207;59.512;18.050;2023-01-01T11:59:46;0.00;99.90
22081;DHT22;11207;59.512;18.050;2023-01-01T12:02:18;0.10;99.90
22081;DHT22;11207;59.512;18.050;2023-01-01T12:04:52;0.10;99.90
22081;DHT22;11207;59.512;18.050;2023-01-01T12:07:27;0.00;99.90
22081;DHT22;11207;59.512;18.050;2023-01-01T12:09:59;0.00;99.90
22081;DHT22;11207;59.512;18.050;2023-01-01T12:12:34;0.00;99.90
22081;DHT22;11207;59.512;18.050;2023-01-01T12:15:15;-0.10;99.90
22081;DHT22;11207;59.512;18.050;2023-01-01T12:17:46;-0.10;99.90
22081;DHT22;11207;59.512;18.050;2023-01-01T12:20:24;-0.10;99.90
22081;DHT22;11207;59.512;18.050;2023-01-01T12:22:54;-0.10;99.90
22081;DHT22;11207;59.512;18.050;2023-01-01T12:25:20;-0.10;99.90
22081;DHT22;11207;59.512;18.050;2023-01-01T12:33:19;-0.20;99.90
22081;DHT22;11207;59.512;18.050;2023-01-01T12:41:44;-0.30;99.90
22081;DHT22;11207;59.512;18.050;2023-01-01T12:44:32;-0.30;99.90
22081;DHT22;11207;59.512;18.050;2023-01-01T12:58:59;-0.40;99.90
22081;DHT22;11207;59.512;18.050;2023-01-01T13:01:29;-0.40;99.90
22081;DHT22;11207;59.512;18.050;2023-01-01T13:04:19;-0.50;99.90
22081;DHT22;11207;59.512;18.050;2023-01-01T13:06:53;-0.50;99.90
22081;DHT22;11207;59.512;18.050;2023-01-01T13:09:26;-0.50;99.90
22081;DHT22;11207;59.512;18.050;2023-01-01T13:12:07;-0.50;99.90
22081;DHT22;11207;59.512;18.050;2023-01-01T13:14:39;-0.50;99.90
22081;DHT22;11207;59.512;18.050;2023-01-01T13:17:24;-0.60;99.90
22081;DHT22;11207;59.512;18.050;2023-01-01T13:20:22;-0.60;99.90
22081;DHT22;11207;59.512;18.050;2023-01-01T13:22:49;-0.60;99.90
22081;DHT22;11207;59.512;18.050;2023-01-01T13:33:23;-0.60;99.90
22081;DHT22;11207;59.512;18.050;2023-01-01T13:38:57;-0.60;99.90
22081;DHT22;11207;59.512;18.050;2023-01-01T13:49:24;-0.70;99.90
22081;DHT22;11207;59.512;18.050;2023-01-01T13:52:34;-0.70;99.90
22081;DHT22;11207;59.512;18.050;2023-01-01T13:55:44;-0.70;99.90
22081;DHT22;11207;59.512;18.050;2023-01-01T14:01:30;-0.80;99.90
22081;DHT22;11207;59.512;18.050;2023-01-01T14:04:04;-0.80;99.90
22081;DHT22;11207;59.512;18.050;2023-01-01T14:06:39;-0.90;99.90
22081;DHT22;11207;59.512;18.050;2023-01-01T14:09:11;-0.90;99.90
22081;DHT22;11207;59.512;18.050;2023-01-01T14:11:37;-0.90;99.90
22081;DHT22;11207;59.512;18.050;2023-01-01T14:14:17;-0.80;99.90
22081;DHT22;11207;59.512;18.050;2023-01-01T14:16:52;-0.80;99.90
22081;DHT22;11207;59.512;18.050;2023-01-01T14:19:19;-0.90;99.90
22081;DHT22;11207;59.512;18.050;2023-01-01T14:21:46;-1.00;99.90
22081;DHT22;11207;59.512;18.050;2023-01-01T14:24:14;-1.00;99.90
22081;DHT22;11207;59.512;18.050;2023-01-01T14:26:42;-1.00;99.90
22081;DHT22;11207;59.512;18.050;2023-01-01T14:29:12;-1.00;99.90
22081;DHT22;11207;59.512;18.050;2023-01-01T14:31:43;-1.00;99.90
22081;DHT22;11207;59.512;18.050;2023-01-01T14:34:29;-1.10;99.90
22081;DHT22;11207;59.512;18.050;2023-01-01T14:36:59;-1.00;99.90
22081;DHT22;11207;59.512;18.050;2023-01-01T14:39:35;-1.10;99.90
22081;DHT22;11207;59.512;18.050;2023-01-01T14:42:05;-1.10;99.90
22081;DHT22;11207;59.512;18.050;2023-01-01T14:44:38;-1.10;99.90
22081;DHT22;11207;59.512;18.050;2023-01-01T14:47:29;-1.10;99.90
22081;DHT22;11207;59.512;18.050;2023-01-01T14:50:14;-1.10;99.90
22081;DHT22;11207;59.512;18.050;2023-01-01T14:52:43;-1.10;99.90
22081;DHT22;11207;59.512;18.050;2023-01-01T14:55:15;-1.20;99.90
22081;DHT22;11207;59.512;18.050;2023-01-01T14:57:45;-1.20;99.90
22081;DHT22;11207;59.512;18.050;2023-01-01T15:00:29;-1.30;99.90
22081;DHT22;11207;59.512;18.050;2023-01-01T15:03:04;-1.30;99.90
22081;DHT22;11207;59.512;18.050;2023-01-01T15:05:32;-1.30;99.90
22081;DHT22;11207;59.512;18.050;2023-01-01T15:08:00;-1.30;99.90
22081;DHT22;11207;59.512;18.050;2023-01-01T15:10:28;-1.30;99.90
22081;DHT22;11207;59.512;18.050;2023-01-01T15:12:55;-1.30;99.90
22081;DHT22;11207;59.512;18.050;2023-01-01T15:15:39;-1.30;99.90
22081;DHT22;11207;59.512;18.050;2023-01-01T15:18:22;-1.40;99.90
22081;DHT22;11207;59.512;18.050;2023-01-01T15:20:53;-1.40;99.90
22081;DHT22;11207;59.512;18.050;2023-01-01T15:23:19;-1.40;99.90
22081;DHT22;11207;59.512;18.050;2023-01-01T15:25:45;-1.40;99.90
22081;DHT22;11207;59.512;18.050;2023-01-01T15:28:18;-1.40;99.90
22081;DHT22;11207;59.512;18.050;2023-01-01T15:30:51;-1.40;99.90
22081;DHT22;11207;59.512;18.050;2023-01-01T15:33:17;-1.40;99.90
22081;DHT22;11207;59.512;18.050;2023-01-01T15:35:48;-1.50;99.90
22081;DHT22;11207;59.512;18.050;2023-01-01T15:38:26;-1.50;99.90
22081;DHT22;11207;59.512;18.050;2023-01-01T15:40:55;-1.60;99.90
22081;DHT22;11207;59.512;18.050;2023-01-01T15:43:22;-1.70;99.90
22081;DHT22;11207;59.512;18.050;2023-01-01T15:45:56;-1.70;99.90
22081;DHT22;11207;59.512;18.050;2023-01-01T15:48:36;-1.70;99.90
22081;DHT22;11207;59.512;18.050;2023-01-01T15:51:10;-1.60;99.90
22081;DHT22;11207;59.512;18.050;2023-01-01T15:53:53;-1.60;99.90
22081;DHT22;11207;59.512;18.050;2023-01-01T15:56:23;-1.70;99.90
22081;DHT22;11207;59.512;18.050;2023-01-01T15:59:04;-1.70;99.90
22081;DHT22;11207;59.512;18.050;2023-01-01T16:01:33;-1.70;99.90
22081;DHT22;11207;59.512;18.050;2023-01-01T16:04:17;-1.70;99.90
22081;DHT22;11207;59.512;18.050;2023-01-01T16:06:45;-1.70;99.90
22081;DHT22;11207;59.512;18.050;2023-01-01T16:09:13;-1.70;99.90
22081;DHT22;11207;59.512;18.050;2023-01-01T16:11:40;-1.80;99.90
22081;DHT22;11207;59.512;18.050;2023-01-01T16:14:06;-1.90;99.90
22081;DHT22;11207;59.512;18.050;2023-01-01T16:16:32;-1.90;99.90
22081;DHT22;11207;59.512;18.050;2023-01-01T16:18:58;-1.90;99.90
22081;DHT22;11207;59.512;18.050;2023-01-01T16:21:26;-1.80;99.90
22081;DHT22;11207;59.512;18.050;2023-01-01T16:23:53;-1.80;99.90
22081;DHT22;11207;59.512;18.050;2023-01-01T16:26:18;-1.80;99.90
22081;DHT22;11207;59.512;18.050;2023-01-01T16:28:44;-1.90;99.90
22081;DHT22;11207;59.512;18.050;2023-01-01T16:31:19;-1.90;99.90
22081;DHT22;11207;59.512;18.050;2023-01-01T16:33:49;-1.90;99.90
22081;DHT22;11207;59.512;18.050;2023-01-01T16:36:16;-1.90;99.90
22081;DHT22;11207;59.512;18.050;2023-01-01T16:38:42;-1.90;99.90
22081;DHT22;11207;59.512;18.050;2023-01-01T16:41:12;-2.00;99.90
22081;DHT22;11207;59.512;18.050;2023-01-01T16:43:39;-2.00;99.90
22081;DHT22;11207;59.512;18.050;2023-01-01T16:46:04;-2.00;99.90
22081;DHT22;11207;59.512;18.050;2023-01-01T16:48:30;-2.00;99.90
22081;DHT22;11207;59.512;18.050;2023-01-01T16:50:55;-2.00;99.90
22081;DHT22;11207;59.512;18.050;2023-01-01T16:53:21;-2.10;99.90
22081;DHT22;11207;59.512;18.050;2023-01-01T16:55:52;-2.00;99.90
22081;DHT22;11207;59.512;18.050;2023-01-01T16:58:19;-2.10;99.90
22081;DHT22;11207;59.512;18.050;2023-01-01T17:00:45;-2.20;99.90
22081;DHT22;11207;59.512;18.050;2023-01-01T17:03:11;-2.20;99.90
22081;DHT22;11207;59.512;18.050;2023-01-01T17:05:37;-2.20;99.90
22081;DHT22;11207;59.512;18.050;2023-01-01T17:08:03;-2.20;99.90
22081;DHT22;11207;59.512;18.050;2023-01-01T17:10:29;-2.20;99.90
22081;DHT22;11207;59.512;18.050;2023-01-01T17:12:55;-2.10;99.90
22081;DHT22;11207;59.512;18.050;2023-01-01T17:15:30;-2.30;99.90
22081;DHT22;11207;59.512;18.050;2023-01-01T17:17:56;-2.40;99.90
22081;DHT22;11207;59.512;18.050;2023-01-01T17:20:23;-2.40;99.90
22081;DHT22;11207;59.512;18.050;2023-01-01T17:22:49;-2.40;99.90
22081;DHT22;11207;59.512;18.050;2023-01-01T17:25:15;-2.40;99.90
22081;DHT22;11207;59.512;18.050;2023-01-01T17:27:41;-2.40;99.90
22081;DHT22;11207;59.512;18.050;2023-01-01T17:30:09;-2.40;99.90
22081;DHT22;11207;59.512;18.050;2023-01-01T17:32:35;-2.40;99.90